KDCA/DCA METAR and TAF weather

Enter ICAO airport designator
Station Type Date Time Source
KDCA METAR 2019/02/23 16:52 UTC NOAA

KDCA 231652Z 12005KT 10SM -RA FEW055 OVC070 05/M01 A3043 RMK AO2 SLP304 P0001 T00501011


Station Type Date Time Source
KDCA Decoded METAR 2019/02/23 16:52 UTC NOAA

WASHINGTON NATIONAL AIRPORT , VA, United States (KDCA) 38-51N 077-02W 18M
Feb 23, 2019 - 11:52 AM EST / 2019.02.23 1652 UTC
Wind: from the ESE (120 degrees) at 6 MPH (5 KT):0
Visibility: 10 mile(s):0
Sky conditions: overcast
Weather: light rain
Precipitation last hour: 0.01 inches
Temperature: 41.0 F (5.0 C)
Dew Point: 30.0 F (-1.1 C)
Relative Humidity: 64%
Pressure (altimeter): 30.43 in. Hg (1030 hPa)
ob: KDCA 231652Z 12005KT 10SM -RA FEW055 OVC070 05/M01 A3043 RMK AO2 SLP304 P0001 T00501011
cycle: 17

Station Type Date Time Source
KDCA TAF 2019/02/23 15:03 UTC NOAA

TAF
AMD KDCA 231500Z 2315/2418 09004KT 6SM -RA SCT050 OVC080
FM232000 12004KT 5SM -RA OVC030
FM232200 11005KT 5SM -RA OVC015
FM240000 09005KT 4SM -RA OVC008
FM240300 10004KT 3SM RA OVC008
FM241500 22010G20KT P6SM BKN025 OVC090


Example: see airport list